Canelo Arrow — C6OM8 — position and weather

sailwx.info

Track history (hours):
 
Tides and Currents Weather Stations Pressure Air Temp Water Temp Dewpoint Dewpoint Depression Visibility Wind Speed Wind Dir Waves Ship Positions

Canelo Arrow

Last reported at 2018-Jun-15 11:47 UTC. Time now 2018-Jun-19 22:16 UTC.
Position N 43°42' W 068°48'.

Length 189.8 m; beam 31 m; draft 12.8 m.

Type: Cargo ship. MMSI: 309761000.

Date/timePositionNaut miles runAvg speedWind from/ knotsBaromVisibWave heightAir tempDewpointWater temp
2018-Jun-15 11:47N 43°42' W 068°48'1213.0
2018-Jun-15 10:54N 43°36' W 069°01'3812.3
2018-Jun-15 07:48N 43°28' W 069°52'413.3
2018-Jun-15 07:30N 43°29' W 069°58'612.3
2018-Jun-15 07:00N 43°31' W 070°05'510.6
2018-Jun-15 06:29N 43°35' W 070°10'5 9.5
2018-Jun-15 06:00N 43°39' W 070°13'0 0.1
2018-Jun-15 05:26N 43°39' W 070°13'0 0.4
2018-Jun-15 04:59N 43°39' W 070°13'0 0.1
2018-Jun-15 04:29N 43°39' W 070°13'0 0.1
2018-Jun-15 03:59N 43°39' W 070°13'0 0.1
2018-Jun-15 03:29N 43°40' W 070°13'0 0.1
2018-Jun-15 02:59N 43°40' W 070°13'0 0.1
2018-Jun-15 02:26N 43°40' W 070°13'0 0.1
2018-Jun-15 01:59N 43°39' W 070°13'0 0.4
2018-Jun-15 01:31N 43°39' W 070°13'2 4.5
2018-Jun-15 01:00N 43°37' W 070°12'510.5
2018-Jun-15 00:30N 43°33' W 070°07'3 5.0
2018-Jun-15 00:00N 43°32' W 070°04'3 6.5
2018-Jun-14 23:30N 43°31' W 069°60'510.6
2018-Jun-14 23:00N 43°30' W 069°53'  
Track history (hours):
 
Tides and Currents Weather Stations Pressure Air Temp Water Temp Dewpoint Dewpoint Depression Visibility Wind Speed Wind Dir Waves Ship Positions

Canelo Arrow

Last reported at 2018-Jun-15 11:47 UTC. Time now 2018-Jun-19 22:16 UTC.
Position N 43°42' W 068°48'.

Length 189.8 m; beam 31 m; draft 12.8 m.

Type: Cargo ship. MMSI: 309761000.

Date/timePositionNaut miles runAvg speedWind from/ knotsBaromVisibWave heightAir tempDewpointWater temp
2018-Jun-15 11:47N 43°42' W 068°48'1213.0
2018-Jun-15 10:54N 43°36' W 069°01'3812.3
2018-Jun-15 07:48N 43°28' W 069°52'413.3
2018-Jun-15 07:30N 43°29' W 069°58'612.3
2018-Jun-15 07:00N 43°31' W 070°05'510.6
2018-Jun-15 06:29N 43°35' W 070°10'5 9.5
2018-Jun-15 06:00N 43°39' W 070°13'0 0.1
2018-Jun-15 05:26N 43°39' W 070°13'0 0.4
2018-Jun-15 04:59N 43°39' W 070°13'0 0.1
2018-Jun-15 04:29N 43°39' W 070°13'0 0.1
2018-Jun-15 03:59N 43°39' W 070°13'0 0.1
2018-Jun-15 03:29N 43°40' W 070°13'0 0.1
2018-Jun-15 02:59N 43°40' W 070°13'0 0.1
2018-Jun-15 02:26N 43°40' W 070°13'0 0.1
2018-Jun-15 01:59N 43°39' W 070°13'0 0.4
2018-Jun-15 01:31N 43°39' W 070°13'2 4.5
2018-Jun-15 01:00N 43°37' W 070°12'510.5
2018-Jun-15 00:30N 43°33' W 070°07'3 5.0
2018-Jun-15 00:00N 43°32' W 070°04'3 6.5
2018-Jun-14 23:30N 43°31' W 069°60'510.6
2018-Jun-14 23:00N 43°30' W 069°53'  

Dump ship's entire track history